Elton, Pennsylvania
Current Conditions -  °F | °C
As of 7:54 PM on Wednesday 17 Dec 2014 (Local Time) from KJST Reporting Station
Overcast Overcast  
Wind Chill: 14°   Ceiling: 1400
Heat Index: 27°   Visibility: 10mi
Dew Point: 20°   Wind: 18mph
Humidity: 75%   Direction: 260°W
Pressure: 29.99"   Gusts: 24mph
Location:  40.28°N, 78.8°W
Report Text: KJST 180054Z AUTO 26016G21KT 10SM OVC014 M03/M07 A2999 RMK AO2 SLP182 T10281067
Loading
Personal Weather Stations






























Interactive Weather Map New forecast layout! Learn more

10-Day Weather Forecast

Advertisements
Track Severe Weather on mobile